createdAt,value
2019-03-06T00:00:01.573Z,4.10
2019-03-06T00:01:01.505Z,5.50
2019-03-06T00:02:01.498Z,7.20
2019-03-06T00:03:01.484Z,4.30
2019-03-06T00:04:01.468Z,5.00
2019-03-06T00:05:01.460Z,6.70
2019-03-06T00:06:01.446Z,4.30
2019-03-06T00:07:01.466Z,5.10
2019-03-06T00:08:01.445Z,6.30
2019-03-06T00:09:01.418Z,4.50
2019-03-06T00:10:01.410Z,4.40
2019-03-06T00:11:01.394Z,5.30
2019-03-06T00:12:01.402Z,5.80
2019-03-06T00:13:01.381Z,5.00
2019-03-06T00:14:01.362Z,6.00
2019-03-06T00:15:01.356Z,6.70
2019-03-06T00:16:01.342Z,6.00
2019-03-06T00:17:01.338Z,6.40
2019-03-06T00:18:01.328Z,5.90
2019-03-06T00:19:01.308Z,5.10
2019-03-06T00:20:01.299Z,5.50
2019-03-06T00:21:01.292Z,4.30
2019-03-06T00:22:01.296Z,6.00
2019-03-06T00:23:02.129Z,5.50
2019-03-06T00:24:01.259Z,5.50
2019-03-06T00:25:01.259Z,6.70
2019-03-06T00:26:01.238Z,5.30
2019-03-06T00:27:01.235Z,4.10
2019-03-06T00:28:01.217Z,5.40
2019-03-06T00:29:01.209Z,8.20
2019-03-06T00:30:01.195Z,5.00
2019-03-06T00:31:01.227Z,4.00
2019-03-06T00:32:01.181Z,4.50
2019-03-06T00:33:01.165Z,6.70
2019-03-06T00:34:01.156Z,5.40
2019-03-06T00:35:01.139Z,4.10
2019-03-06T00:36:01.139Z,5.60
2019-03-06T00:37:01.126Z,5.10
2019-03-06T00:38:01.109Z,5.50
2019-03-06T00:39:01.098Z,3.50
2019-03-06T00:40:01.089Z,5.30
2019-03-06T00:41:01.099Z,5.60
2019-03-06T00:42:01.077Z,3.90
2019-03-06T00:43:01.057Z,4.50
2019-03-06T00:44:01.047Z,3.40
2019-03-06T00:45:01.034Z,5.10
2019-03-06T00:46:01.036Z,5.60
2019-03-06T00:47:01.037Z,5.30
2019-03-06T00:48:01.002Z,5.00
2019-03-06T00:49:01.003Z,6.40
2019-03-06T00:50:00.989Z,7.60
2019-03-06T00:51:00.972Z,6.20
2019-03-06T00:52:00.970Z,5.20
2019-03-06T00:53:00.966Z,4.10
2019-03-06T00:54:00.940Z,4.80
2019-03-06T00:55:00.958Z,4.90
2019-03-06T00:56:00.920Z,5.00
2019-03-06T00:57:00.916Z,5.90
2019-03-06T00:58:00.901Z,3.50
2019-03-06T00:59:00.888Z,5.80
2019-03-06T01:00:00.886Z,4.60
2019-03-06T01:01:00.870Z,7.00
2019-03-06T01:02:00.864Z,5.20
2019-03-06T01:03:00.843Z,5.20
2019-03-06T01:04:00.838Z,6.80
2019-03-06T01:05:00.820Z,5.60
2019-03-06T01:06:00.815Z,4.40
2019-03-06T01:07:00.810Z,4.80
2019-03-06T01:08:00.792Z,5.50
2019-03-06T01:09:00.784Z,3.90
2019-03-06T01:10:00.778Z,4.30
2019-03-06T01:11:00.762Z,4.90
2019-03-06T01:12:00.757Z,4.70
2019-03-06T01:13:00.738Z,5.20
2019-03-06T01:14:00.727Z,5.60
2019-03-06T01:15:00.721Z,4.60
2019-03-06T01:16:00.709Z,4.90
2019-03-06T01:17:00.705Z,3.60
2019-03-06T01:18:00.688Z,4.40
2019-03-06T01:19:00.671Z,4.50
2019-03-06T01:20:00.665Z,6.30
2019-03-06T01:21:00.652Z,5.10
2019-03-06T01:22:00.676Z,6.20
2019-03-06T01:23:00.635Z,4.90
2019-03-06T01:24:00.624Z,7.00
2019-03-06T01:25:00.617Z,4.80
2019-03-06T01:26:00.599Z,5.50
2019-03-06T01:27:00.592Z,6.10
2019-03-06T01:28:00.588Z,7.20
2019-03-06T01:29:00.571Z,6.20
2019-03-06T01:30:00.560Z,5.10
2019-03-06T01:31:00.544Z,4.90
2019-03-06T01:32:00.542Z,7.00
2019-03-06T01:33:00.541Z,5.80
2019-03-06T01:34:00.513Z,5.80
2019-03-06T01:35:00.500Z,7.30
2019-03-06T01:36:00.491Z,5.90
2019-03-06T01:37:00.480Z,6.10
2019-03-06T01:38:00.880Z,5.10
2019-03-06T01:39:00.461Z,5.80
2019-03-06T01:40:00.450Z,5.10
2019-03-06T01:41:00.443Z,6.30
2019-03-06T01:42:00.428Z,5.20
2019-03-06T01:43:00.436Z,6.50
2019-03-06T01:44:00.413Z,4.60
2019-03-06T01:45:00.423Z,6.10
2019-03-06T01:46:00.383Z,5.50
2019-03-06T01:47:00.371Z,5.50
2019-03-06T01:48:00.395Z,5.30
2019-03-06T01:49:00.356Z,6.60
2019-03-06T01:50:00.340Z,8.00
2019-03-06T01:51:00.333Z,6.10
2019-03-06T01:52:00.322Z,6.20
2019-03-06T01:53:00.313Z,8.90
2019-03-06T01:54:00.319Z,5.80
2019-03-06T01:55:00.358Z,6.60
2019-03-06T01:56:00.279Z,6.40
2019-03-06T01:57:00.269Z,5.50
2019-03-06T01:58:00.262Z,5.80
2019-03-06T01:59:00.258Z,5.70
2019-03-06T02:00:00.360Z,8.10
2019-03-06T02:01:00.229Z,5.10
2019-03-06T02:02:00.224Z,6.30
2019-03-06T02:03:00.206Z,7.30
2019-03-06T02:04:00.207Z,5.70
2019-03-06T02:05:00.318Z,10.00
2019-03-06T02:06:00.231Z,6.90
2019-03-06T02:07:00.160Z,6.00
2019-03-06T02:08:00.151Z,8.10
2019-03-06T02:09:00.157Z,6.80
2019-03-06T02:10:00.320Z,8.20
2019-03-06T02:11:00.117Z,4.50
2019-03-06T02:12:00.111Z,5.80
2019-03-06T02:13:00.096Z,6.30
2019-03-06T02:14:00.099Z,9.00
2019-03-06T02:15:00.085Z,6.60
2019-03-06T02:16:00.068Z,6.50
2019-03-06T02:17:00.058Z,8.60
2019-03-06T02:18:00.045Z,6.20
2019-03-06T02:19:00.093Z,5.90
2019-03-06T02:20:00.024Z,9.20
2019-03-06T02:21:00.019Z,6.30
2019-03-06T02:22:00.006Z,5.90
2019-03-06T02:22:59.992Z,11.40
2019-03-06T02:23:59.991Z,7.90
2019-03-06T02:24:59.970Z,6.80
2019-03-06T02:25:59.959Z,7.60
2019-03-06T02:26:59.961Z,6.70
2019-03-06T02:27:59.935Z,8.10
2019-03-06T02:28:59.939Z,7.10
2019-03-06T02:29:59.919Z,6.70
2019-03-06T02:30:59.906Z,9.00
2019-03-06T02:31:59.899Z,7.10
2019-03-06T02:32:59.887Z,8.20
2019-03-06T02:33:59.891Z,8.20
2019-03-06T02:34:59.873Z,7.90
2019-03-06T02:35:59.853Z,7.10
2019-03-06T02:36:59.845Z,9.30
2019-03-06T02:37:59.832Z,7.30
2019-03-06T02:38:59.834Z,6.20
2019-03-06T02:39:59.815Z,7.40
2019-03-06T02:40:59.799Z,6.40
2019-03-06T02:41:59.794Z,6.70
2019-03-06T02:42:59.782Z,8.00
2019-03-06T02:43:59.787Z,7.20
2019-03-06T02:44:59.771Z,8.20
2019-03-06T02:45:59.745Z,10.40
2019-03-06T02:46:59.740Z,6.90
2019-03-06T02:47:59.724Z,7.20
2019-03-06T02:48:59.726Z,6.70
2019-03-06T02:49:59.714Z,7.20
2019-03-06T02:50:59.692Z,7.30
2019-03-06T02:51:59.682Z,6.50
2019-03-06T02:52:59.672Z,8.60
2019-03-06T02:53:59.670Z,6.70
2019-03-06T02:54:59.652Z,8.60
2019-03-06T02:55:59.638Z,8.10
2019-03-06T02:56:59.632Z,6.50
2019-03-06T02:57:59.624Z,7.00
2019-03-06T02:58:59.614Z,7.10
2019-03-06T02:59:59.606Z,7.50
2019-03-06T03:00:59.591Z,9.10
2019-03-06T03:01:59.574Z,11.20
2019-03-06T03:02:59.566Z,7.30
2019-03-06T03:03:59.567Z,8.70
2019-03-06T03:04:59.543Z,11.50
2019-03-06T03:05:59.534Z,8.50
2019-03-06T03:06:59.531Z,6.40
2019-03-06T03:07:59.516Z,9.00
2019-03-06T03:08:59.536Z,6.90
2019-03-06T03:09:59.488Z,9.90
2019-03-06T03:10:59.480Z,7.90
2019-03-06T03:11:59.471Z,7.30
2019-03-06T03:12:59.456Z,7.70
2019-03-06T03:13:59.446Z,7.20
2019-03-06T03:14:59.446Z,8.20
2019-03-06T03:15:59.439Z,10.20
2019-03-06T03:16:59.417Z,6.90
2019-03-06T03:17:59.402Z,9.00
2019-03-06T03:18:59.393Z,8.20
2019-03-06T03:19:59.396Z,7.20
2019-03-06T03:20:59.382Z,13.00
2019-03-06T03:21:59.364Z,8.20
2019-03-06T03:22:59.353Z,7.00
2019-03-06T03:23:59.341Z,7.40
2019-03-06T03:24:59.344Z,7.30
2019-03-06T03:25:59.319Z,10.40
2019-03-06T03:26:59.318Z,11.50
2019-03-06T03:27:59.299Z,8.10
2019-03-06T03:28:59.290Z,8.30
2019-03-06T03:29:59.291Z,8.90
2019-03-06T03:30:59.271Z,8.10
2019-03-06T03:31:59.278Z,7.30
2019-03-06T03:32:59.258Z,7.80
2019-03-06T03:33:59.241Z,9.60
2019-03-06T03:34:59.233Z,7.40
2019-03-06T03:35:59.209Z,8.00
2019-03-06T03:36:59.204Z,10.50
2019-03-06T03:37:59.196Z,10.90
2019-03-06T03:38:59.181Z,6.50
2019-03-06T03:39:59.180Z,9.10
2019-03-06T03:40:59.159Z,8.20
2019-03-06T03:41:59.147Z,8.30
2019-03-06T03:42:59.138Z,9.50
2019-03-06T03:43:59.128Z,7.50
2019-03-06T03:44:59.126Z,7.10
2019-03-06T03:45:59.106Z,8.90
2019-03-06T03:46:59.096Z,8.50
2019-03-06T03:47:59.089Z,10.10
2019-03-06T03:48:59.080Z,7.40
2019-03-06T03:49:59.074Z,8.70
2019-03-06T03:50:59.051Z,8.40
2019-03-06T03:51:59.041Z,7.70
2019-03-06T03:52:59.032Z,7.00
2019-03-06T03:53:59.023Z,7.20
2019-03-06T03:54:59.020Z,9.50
2019-03-06T03:55:58.998Z,8.40
2019-03-06T03:56:58.990Z,7.80
2019-03-06T03:57:58.989Z,6.50
2019-03-06T03:58:58.970Z,10.10
2019-03-06T03:59:58.974Z,7.30
2019-03-06T04:00:58.947Z,9.80
2019-03-06T04:01:58.939Z,8.50
2019-03-06T04:02:58.922Z,7.10
2019-03-06T04:03:58.923Z,7.70
2019-03-06T04:04:58.911Z,7.50
2019-03-06T04:05:58.893Z,7.80
2019-03-06T04:06:58.887Z,8.70
2019-03-06T04:07:58.871Z,8.20
2019-03-06T04:08:58.860Z,9.10
2019-03-06T04:09:58.857Z,7.70
2019-03-06T04:10:58.839Z,7.50
2019-03-06T04:11:58.826Z,8.60
2019-03-06T04:12:58.818Z,11.10
2019-03-06T04:13:58.807Z,9.10
2019-03-06T04:14:58.807Z,9.40
2019-03-06T04:15:58.795Z,8.10
2019-03-06T04:16:58.777Z,8.30
2019-03-06T04:17:58.765Z,7.80
2019-03-06T04:18:58.766Z,8.30
2019-03-06T04:19:58.753Z,7.20
2019-03-06T04:20:58.744Z,6.50
2019-03-06T04:21:58.724Z,6.40
2019-03-06T04:22:58.720Z,7.90
2019-03-06T04:23:58.707Z,8.50
2019-03-06T04:24:58.699Z,8.30
2019-03-06T04:25:58.682Z,8.50
2019-03-06T04:26:58.669Z,7.60
2019-03-06T04:27:58.658Z,7.50
2019-03-06T04:28:58.661Z,8.40
2019-03-06T04:29:58.897Z,8.30
2019-03-06T04:30:58.628Z,7.90
2019-03-06T04:31:58.616Z,7.50
2019-03-06T04:32:58.603Z,7.90
2019-03-06T04:33:58.594Z,6.30
2019-03-06T04:34:58.614Z,8.40
2019-03-06T04:35:58.579Z,5.90
2019-03-06T04:36:58.561Z,8.30
2019-03-06T04:37:58.550Z,9.90
2019-03-06T04:38:58.542Z,8.60
2019-03-06T04:39:58.574Z,7.00
2019-03-06T04:40:58.523Z,6.80
2019-03-06T04:41:58.510Z,7.90
2019-03-06T04:42:58.498Z,9.70
2019-03-06T04:43:58.488Z,7.90
2019-03-06T04:44:58.483Z,7.60
2019-03-06T04:45:58.482Z,7.40
2019-03-06T04:46:58.455Z,8.30
2019-03-06T04:47:58.444Z,8.00
2019-03-06T04:48:58.441Z,6.80
2019-03-06T04:49:58.425Z,7.40
2019-03-06T04:50:58.425Z,7.80
2019-03-06T04:51:58.401Z,7.90
2019-03-06T04:52:58.392Z,9.00
2019-03-06T04:53:58.380Z,8.40
2019-03-06T04:54:58.372Z,10.90
2019-03-06T04:55:58.367Z,6.60
2019-03-06T04:56:58.349Z,7.80
2019-03-06T04:57:58.340Z,7.50
2019-03-06T04:58:58.329Z,8.80
2019-03-06T04:59:58.316Z,8.80
2019-03-06T05:00:58.318Z,8.00
2019-03-06T05:01:58.304Z,7.10
2019-03-06T05:02:58.286Z,8.50
2019-03-06T05:03:58.278Z,8.80
2019-03-06T05:04:58.264Z,8.30
2019-03-06T05:05:58.261Z,14.10
2019-03-06T05:06:58.243Z,7.50
2019-03-06T05:07:58.235Z,8.10
2019-03-06T05:08:58.220Z,8.60
2019-03-06T05:09:58.219Z,6.60
2019-03-06T05:10:58.215Z,8.20
2019-03-06T05:11:58.191Z,7.80
2019-03-06T05:12:58.177Z,11.50
2019-03-06T05:13:58.168Z,8.10
2019-03-06T05:14:58.192Z,7.30
2019-03-06T05:15:58.160Z,8.10
2019-03-06T05:16:58.136Z,8.20
2019-03-06T05:17:58.125Z,9.40
2019-03-06T05:18:58.113Z,9.40
2019-03-06T05:19:58.107Z,8.60
2019-03-06T05:20:58.100Z,8.40
2019-03-06T05:21:58.091Z,9.60
2019-03-06T05:22:58.100Z,8.60
2019-03-06T05:23:58.062Z,6.80
2019-03-06T05:24:58.053Z,8.00
2019-03-06T05:25:58.057Z,8.70
2019-03-06T05:26:58.034Z,9.00
2019-03-06T05:27:58.024Z,6.60
2019-03-06T05:29:07.397Z,7.30
2019-03-06T05:29:58.001Z,9.50
2019-03-06T05:30:57.998Z,8.00
2019-03-06T05:31:57.976Z,8.00
2019-03-06T05:32:57.965Z,8.50
2019-03-06T05:33:57.962Z,8.30
2019-03-06T05:34:57.956Z,8.90
2019-03-06T05:35:57.946Z,9.30
2019-03-06T05:36:57.926Z,8.90
2019-03-06T05:37:57.915Z,8.30
2019-03-06T05:38:57.904Z,10.40
2019-03-06T05:39:57.892Z,8.50
2019-03-06T05:40:57.892Z,6.80
2019-03-06T05:41:57.872Z,8.50
2019-03-06T05:42:57.861Z,11.20
2019-03-06T05:43:57.848Z,8.20
2019-03-06T05:44:57.839Z,10.80
2019-03-06T05:45:57.857Z,7.10
2019-03-06T05:46:57.817Z,9.00
2019-03-06T05:47:57.809Z,7.80
2019-03-06T05:48:57.795Z,8.30
2019-03-06T05:49:57.785Z,9.70
2019-03-06T05:50:57.784Z,8.30
2019-03-06T05:51:57.766Z,8.40
2019-03-06T05:52:57.755Z,7.50
2019-03-06T05:53:57.744Z,8.30
2019-03-06T05:54:57.733Z,9.50
2019-03-06T05:55:57.731Z,8.60
2019-03-06T05:56:57.710Z,7.40
2019-03-06T05:57:57.700Z,10.10
2019-03-06T05:58:57.690Z,8.60
2019-03-06T05:59:57.682Z,8.30
2019-03-06T06:00:57.675Z,9.90
2019-03-06T06:01:57.657Z,8.30
2019-03-06T06:02:57.646Z,8.60
2019-03-06T06:03:57.638Z,8.10
2019-03-06T06:04:57.624Z,7.70
2019-03-06T06:05:57.624Z,9.80
2019-03-06T06:06:57.605Z,7.30
2019-03-06T06:07:57.595Z,10.50
2019-03-06T06:08:57.583Z,9.10
2019-03-06T06:09:57.574Z,14.40
2019-03-06T06:10:57.571Z,10.10
2019-03-06T06:11:57.551Z,8.50
2019-03-06T06:12:57.540Z,11.10
2019-03-06T06:13:57.530Z,10.30
2019-03-06T06:14:57.519Z,7.50
2019-03-06T06:15:57.542Z,11.30
2019-03-06T06:16:57.497Z,9.30
2019-03-06T06:17:57.487Z,9.00
2019-03-06T06:18:57.475Z,8.40
2019-03-06T06:19:57.467Z,8.80
2019-03-06T06:20:57.457Z,9.00
2019-03-06T06:21:57.454Z,8.00
2019-03-06T06:22:57.431Z,8.70
2019-03-06T06:23:57.421Z,8.70
2019-03-06T06:24:57.413Z,9.10
2019-03-06T06:25:57.403Z,8.50
2019-03-06T06:26:57.398Z,9.20
2019-03-06T06:27:57.378Z,8.30
2019-03-06T06:28:57.369Z,9.60
2019-03-06T06:29:57.358Z,10.90
2019-03-06T06:30:57.346Z,9.20
2019-03-06T06:31:57.346Z,12.10
2019-03-06T06:32:57.325Z,11.20
2019-03-06T06:33:57.316Z,8.80
2019-03-06T06:34:57.305Z,9.10
2019-03-06T06:35:57.332Z,10.10
2019-03-06T06:36:57.296Z,8.70
2019-03-06T06:37:57.272Z,8.90
2019-03-06T06:38:57.262Z,8.50
2019-03-06T06:39:57.251Z,8.70
2019-03-06T06:40:57.241Z,9.80
2019-03-06T06:41:57.252Z,8.40
2019-03-06T06:42:57.219Z,10.00
2019-03-06T06:43:57.209Z,9.30
2019-03-06T06:44:57.198Z,13.50
2019-03-06T06:45:57.188Z,9.50
2019-03-06T06:46:57.177Z,9.90
2019-03-06T06:47:57.175Z,8.50
2019-03-06T06:48:57.153Z,9.20
2019-03-06T06:49:57.142Z,9.50
2019-03-06T06:51:01.610Z,10.80
2019-03-06T06:51:58.132Z,8.60
2019-03-06T06:52:57.122Z,8.00
2019-03-06T06:53:57.101Z,11.70
2019-03-06T06:54:57.090Z,11.00
2019-03-06T06:55:57.081Z,12.00
2019-03-06T06:56:57.071Z,10.80
2019-03-06T06:57:57.072Z,13.00
2019-03-06T06:58:57.054Z,10.70
2019-03-06T06:59:57.038Z,17.80
2019-03-06T07:00:57.028Z,11.70
2019-03-06T07:01:57.019Z,10.20
2019-03-06T07:02:57.021Z,13.20
2019-03-06T07:03:56.997Z,10.50
2019-03-06T07:04:56.986Z,10.30
2019-03-06T07:05:56.975Z,12.70
2019-03-06T07:06:56.966Z,11.90
2019-03-06T07:07:56.965Z,10.30
2019-03-06T07:08:56.942Z,15.60
2019-03-06T07:09:56.934Z,12.20
2019-03-06T07:10:56.920Z,11.10
2019-03-06T07:11:56.913Z,11.80
2019-03-06T07:12:56.909Z,10.30
2019-03-06T07:13:56.887Z,11.40
2019-03-06T07:14:56.885Z,10.50
2019-03-06T07:15:56.866Z,10.10
2019-03-06T07:16:57.570Z,11.50
2019-03-06T07:17:56.856Z,12.30
2019-03-06T07:18:56.834Z,9.70
2019-03-06T07:19:56.825Z,10.50
2019-03-06T07:20:56.813Z,8.00
2019-03-06T07:21:56.803Z,10.20
2019-03-06T07:22:56.802Z,12.90
2019-03-06T07:23:56.780Z,10.40
2019-03-06T07:24:56.825Z,9.60
2019-03-06T07:25:56.761Z,11.00
2019-03-06T07:26:56.750Z,11.20
2019-03-06T07:27:56.770Z,12.70
2019-03-06T07:28:56.728Z,10.20
2019-03-06T07:29:56.717Z,6.80
2019-03-06T07:30:56.710Z,9.20
2019-03-06T07:31:56.700Z,10.70
2019-03-06T07:32:56.696Z,8.20
2019-03-06T07:33:56.675Z,9.00
2019-03-06T07:34:56.661Z,8.00
2019-03-06T07:35:56.651Z,7.50
2019-03-06T07:36:56.642Z,8.30
2019-03-06T07:37:56.641Z,9.40
2019-03-06T07:38:56.646Z,9.00
2019-03-06T07:39:56.609Z,7.00
2019-03-06T07:40:56.597Z,7.10
2019-03-06T07:41:56.589Z,7.80
2019-03-06T07:42:56.603Z,9.30
2019-03-06T07:43:56.566Z,9.10
2019-03-06T07:44:56.561Z,7.90
2019-03-06T07:45:56.544Z,8.20
2019-03-06T07:46:56.536Z,11.80
2019-03-06T07:47:56.521Z,8.40
2019-03-06T07:48:56.532Z,7.30
2019-03-06T07:49:56.510Z,7.00
2019-03-06T07:50:56.492Z,6.70
2019-03-06T07:51:56.480Z,7.10
2019-03-06T07:52:56.470Z,7.50
2019-03-06T07:53:56.468Z,8.00
2019-03-06T07:54:56.454Z,6.80
2019-03-06T07:55:56.438Z,9.60
2019-03-06T07:56:56.427Z,5.50
2019-03-06T07:57:56.415Z,6.20
2019-03-06T07:58:56.419Z,6.50
2019-03-06T07:59:56.394Z,6.00
2019-03-06T08:00:56.385Z,6.70
2019-03-06T08:01:56.374Z,8.50
2019-03-06T08:02:56.362Z,8.00
2019-03-06T08:03:56.364Z,7.40
2019-03-06T08:04:56.340Z,7.60
2019-03-06T08:05:56.338Z,6.30
2019-03-06T08:06:56.318Z,6.20
2019-03-06T08:07:56.309Z,6.00
2019-03-06T08:08:56.306Z,6.70
2019-03-06T08:09:56.287Z,7.30
2019-03-06T08:10:56.278Z,6.50
2019-03-06T08:11:56.269Z,7.70
2019-03-06T08:12:56.256Z,6.40
2019-03-06T08:13:56.253Z,6.40
2019-03-06T08:14:56.236Z,7.90
2019-03-06T08:15:56.244Z,8.50
2019-03-06T08:16:56.219Z,9.10
2019-03-06T08:17:56.206Z,8.70
2019-03-06T08:18:56.204Z,9.90
2019-03-06T08:19:56.184Z,8.60
2019-03-06T08:20:56.176Z,6.30
2019-03-06T08:21:56.164Z,6.70
2019-03-06T08:22:56.156Z,6.80
2019-03-06T08:23:56.173Z,6.40
2019-03-06T08:24:56.130Z,7.90
2019-03-06T08:25:56.120Z,6.60
2019-03-06T08:26:56.120Z,5.10
2019-03-06T08:27:56.099Z,8.20
2019-03-06T08:28:56.096Z,5.20
2019-03-06T08:29:56.096Z,7.50
2019-03-06T08:30:56.069Z,6.00
2019-03-06T08:31:56.056Z,4.90
2019-03-06T08:32:56.046Z,5.90
2019-03-06T08:33:56.033Z,6.30
2019-03-06T08:34:56.121Z,6.50
2019-03-06T08:35:56.017Z,5.30
2019-03-06T08:36:56.012Z,5.20
2019-03-06T08:37:55.996Z,6.20
2019-03-06T08:38:55.985Z,5.40
2019-03-06T08:39:55.991Z,6.50
2019-03-06T08:41:03.821Z,5.40
2019-03-06T08:41:56.953Z,6.30
2019-03-06T08:42:55.944Z,8.00
2019-03-06T08:43:55.934Z,5.40
2019-03-06T08:44:55.936Z,5.40
2019-03-06T08:45:55.911Z,7.20
2019-03-06T08:46:55.901Z,7.60
2019-03-06T08:47:55.893Z,5.50
2019-03-06T08:48:55.881Z,6.10
2019-03-06T08:49:55.879Z,5.70
2019-03-06T08:50:55.856Z,6.80
2019-03-06T08:51:55.853Z,6.50
2019-03-06T08:52:55.837Z,6.80
2019-03-06T08:53:55.827Z,6.40
2019-03-06T08:54:55.831Z,6.10
2019-03-06T08:55:55.806Z,5.40
2019-03-06T08:56:55.795Z,5.60
2019-03-06T08:57:55.783Z,5.70
2019-03-06T08:58:55.775Z,6.80
2019-03-06T08:59:55.779Z,5.90
2019-03-06T09:00:55.751Z,6.60
2019-03-06T09:02:00.480Z,5.70
2019-03-06T09:02:56.739Z,6.80
2019-03-06T09:03:55.721Z,5.50
2019-03-06T09:04:55.719Z,8.40
2019-03-06T09:05:55.699Z,6.30
2019-03-06T09:06:55.686Z,5.60
2019-03-06T09:07:55.682Z,6.00
2019-03-06T09:08:55.668Z,5.60
2019-03-06T09:09:55.663Z,6.10
2019-03-06T09:11:02.495Z,5.80
2019-03-06T09:11:56.635Z,4.70
2019-03-06T09:12:55.625Z,6.70
2019-03-06T09:13:55.614Z,7.80
2019-03-06T09:14:55.613Z,15.00
2019-03-06T09:15:55.598Z,6.60
2019-03-06T09:16:55.592Z,5.30
2019-03-06T09:17:55.574Z,6.20
2019-03-06T09:18:55.561Z,5.00
2019-03-06T09:19:55.567Z,6.10
2019-03-06T09:20:55.540Z,7.60
2019-03-06T09:21:55.530Z,5.30
2019-03-06T09:22:55.527Z,6.80
2019-03-06T09:23:55.512Z,8.10
2019-03-06T09:24:55.532Z,5.10
2019-03-06T09:25:55.489Z,6.10
2019-03-06T09:26:55.485Z,5.60
2019-03-06T09:27:55.469Z,8.60
2019-03-06T09:29:01.075Z,5.60
2019-03-06T09:29:56.474Z,7.60
2019-03-06T09:30:55.439Z,6.80
2019-03-06T09:31:55.429Z,6.20
2019-03-06T09:32:55.448Z,6.00
2019-03-06T09:33:55.411Z,6.60
2019-03-06T09:34:55.401Z,5.40
2019-03-06T09:35:55.397Z,6.20
2019-03-06T09:36:55.377Z,5.70
2019-03-06T09:37:55.368Z,4.60
2019-03-06T09:38:55.364Z,5.30
2019-03-06T09:39:55.348Z,5.00
2019-03-06T09:40:55.350Z,5.10
2019-03-06T09:41:55.327Z,4.40
2019-03-06T09:42:55.318Z,4.90
2019-03-06T09:43:55.308Z,6.50
2019-03-06T09:44:55.299Z,4.10
2019-03-06T09:45:55.297Z,4.90
2019-03-06T09:46:55.277Z,4.10
2019-03-06T09:47:55.265Z,5.90
2019-03-06T09:48:55.256Z,3.80
2019-03-06T09:49:55.247Z,3.30
2019-03-06T09:50:55.249Z,3.80
2019-03-06T09:51:55.225Z,4.90
2019-03-06T09:52:55.213Z,5.10
2019-03-06T09:53:55.202Z,6.40
2019-03-06T09:54:55.213Z,6.30
2019-03-06T09:55:55.201Z,5.10
2019-03-06T09:56:55.178Z,4.40
2019-03-06T09:57:55.163Z,3.60
2019-03-06T09:58:55.153Z,5.80
2019-03-06T09:59:55.141Z,4.60
2019-03-06T10:00:55.173Z,4.70
2019-03-06T10:01:55.120Z,5.50
2019-03-06T10:02:55.110Z,4.30
2019-03-06T10:03:55.098Z,4.80
2019-03-06T10:04:55.091Z,5.70
2019-03-06T10:05:55.095Z,5.60
2019-03-06T10:06:55.069Z,4.60
2019-03-06T10:07:55.058Z,5.50
2019-03-06T10:08:55.051Z,3.40
2019-03-06T10:09:59.005Z,5.40
2019-03-06T10:10:57.847Z,4.40
2019-03-06T10:11:55.018Z,4.50
2019-03-06T10:12:55.006Z,4.20
2019-03-06T10:13:54.996Z,5.30
2019-03-06T10:14:54.985Z,4.20
2019-03-06T10:15:54.974Z,3.10
2019-03-06T10:16:54.974Z,5.00
2019-03-06T10:17:54.952Z,5.10
2019-03-06T10:18:54.946Z,5.40
2019-03-06T10:19:54.934Z,4.40
2019-03-06T10:20:54.931Z,6.10
2019-03-06T10:21:54.923Z,7.30
2019-03-06T10:22:59.464Z,4.90
2019-03-06T10:23:54.892Z,3.80
2019-03-06T10:24:55.685Z,5.10
2019-03-06T10:25:54.870Z,5.10
2019-03-06T10:26:54.869Z,4.80
2019-03-06T10:27:54.848Z,5.10
2019-03-06T10:28:54.840Z,6.20
2019-03-06T10:29:54.829Z,5.00
2019-03-06T10:31:55.822Z,3.80
2019-03-06T10:32:54.797Z,4.20
2019-03-06T10:33:54.788Z,5.10
2019-03-06T10:34:55.156Z,5.70
2019-03-06T10:35:54.767Z,3.90
2019-03-06T10:36:54.765Z,4.20
2019-03-06T10:37:54.752Z,4.90
2019-03-06T10:38:54.741Z,5.70
2019-03-06T10:39:54.725Z,3.50
2019-03-06T10:40:54.718Z,12.60
2019-03-06T10:41:54.710Z,4.80
2019-03-06T10:42:54.692Z,5.10
2019-03-06T10:43:54.683Z,5.00
2019-03-06T10:44:54.669Z,4.20
2019-03-06T10:45:54.662Z,4.60
2019-03-06T10:46:54.657Z,5.20
2019-03-06T10:47:54.640Z,4.30
2019-03-06T10:48:54.633Z,3.70
2019-03-06T10:49:54.635Z,3.80
2019-03-06T10:50:54.611Z,4.20
2019-03-06T10:51:54.606Z,5.30
2019-03-06T10:52:54.622Z,3.30
2019-03-06T10:53:54.575Z,4.60
2019-03-06T10:54:54.565Z,3.80
2019-03-06T10:55:54.556Z,5.40
2019-03-06T10:56:54.554Z,4.40
2019-03-06T10:57:54.532Z,3.80
2019-03-06T10:58:54.521Z,4.70
2019-03-06T10:59:54.512Z,5.00
2019-03-06T11:00:54.510Z,6.70
2019-03-06T11:01:54.509Z,5.30
2019-03-06T11:02:54.482Z,5.20
2019-03-06T11:03:54.472Z,4.70
2019-03-06T11:04:54.468Z,3.60
2019-03-06T11:05:54.450Z,4.00
2019-03-06T11:06:54.448Z,5.90
2019-03-06T11:07:54.425Z,4.70
2019-03-06T11:08:54.415Z,4.30
2019-03-06T11:09:54.419Z,4.30
2019-03-06T11:10:54.396Z,3.30
2019-03-06T11:11:54.393Z,4.10
2019-03-06T11:12:54.374Z,4.30
2019-03-06T11:13:54.365Z,4.00
2019-03-06T11:14:54.352Z,3.80
2019-03-06T11:15:55.961Z,5.00
2019-03-06T11:16:54.338Z,4.70
2019-03-06T11:17:54.320Z,3.20
2019-03-06T11:18:54.310Z,4.20
2019-03-06T11:19:54.297Z,4.00
2019-03-06T11:20:54.290Z,4.50
2019-03-06T11:21:54.286Z,4.10
2019-03-06T11:22:54.267Z,5.70
2019-03-06T11:23:54.278Z,3.90
2019-03-06T11:24:54.246Z,4.50
2019-03-06T11:25:54.235Z,3.80
2019-03-06T11:26:54.238Z,4.70
2019-03-06T11:27:54.212Z,5.00
2019-03-06T11:28:54.204Z,3.80
2019-03-06T11:30:03.591Z,4.00
2019-03-06T11:30:54.182Z,2.80
2019-03-06T11:31:54.195Z,4.00
2019-03-06T11:32:54.677Z,4.20
2019-03-06T11:33:54.154Z,4.30
2019-03-06T11:34:54.177Z,3.70
2019-03-06T11:35:54.134Z,4.60
2019-03-06T11:37:01.187Z,3.50
2019-03-06T11:37:54.127Z,4.00
2019-03-06T11:38:54.094Z,4.00
2019-03-06T11:39:54.085Z,7.50
2019-03-06T11:40:54.080Z,4.10
2019-03-06T11:41:54.064Z,4.60
2019-03-06T11:42:54.068Z,3.70
2019-03-06T11:43:54.042Z,3.10
2019-03-06T11:44:54.033Z,5.10
2019-03-06T11:45:54.021Z,4.30
2019-03-06T11:46:54.018Z,3.90
2019-03-06T11:47:54.011Z,4.30
2019-03-06T11:48:53.996Z,4.90
2019-03-06T11:49:53.988Z,4.90
2019-03-06T11:50:53.994Z,3.70
2019-03-06T11:51:53.963Z,3.60
2019-03-06T11:52:53.960Z,4.00
2019-03-06T11:53:53.941Z,2.90
2019-03-06T11:54:53.929Z,4.60
2019-03-06T11:55:53.923Z,3.70
2019-03-06T11:56:53.903Z,4.70
2019-03-06T11:57:53.905Z,3.00
2019-03-06T11:58:53.885Z,4.40
2019-03-06T11:59:53.874Z,3.70
2019-03-06T12:00:53.882Z,5.60
2019-03-06T12:01:53.880Z,5.70
2019-03-06T12:02:53.861Z,4.00
2019-03-06T12:03:53.836Z,4.70
2019-03-06T12:04:53.824Z,5.00
2019-03-06T12:05:53.815Z,2.80
2019-03-06T12:06:53.813Z,5.30
2019-03-06T12:07:53.813Z,3.90
2019-03-06T12:08:53.775Z,2.90
2019-03-06T12:09:53.760Z,3.60
2019-03-06T12:10:53.754Z,2.80
2019-03-06T12:11:53.753Z,3.70
2019-03-06T12:12:53.753Z,4.70
2019-03-06T12:13:53.724Z,3.00
2019-03-06T12:14:53.729Z,4.50
2019-03-06T12:15:53.701Z,4.00
2019-03-06T12:16:53.690Z,3.40
2019-03-06T12:17:53.694Z,3.70
2019-03-06T12:18:53.668Z,3.40
2019-03-06T12:19:53.652Z,3.50
2019-03-06T12:20:53.651Z,3.20
2019-03-06T12:21:53.634Z,5.70
2019-03-06T12:22:53.657Z,4.00
2019-03-06T12:23:53.622Z,2.90
2019-03-06T12:24:53.606Z,4.10
2019-03-06T12:25:53.597Z,4.30
2019-03-06T12:26:53.583Z,5.00
2019-03-06T12:27:53.574Z,3.90
2019-03-06T12:28:53.571Z,3.10
2019-03-06T12:29:53.550Z,2.80
2019-03-06T12:30:53.546Z,5.20
2019-03-06T12:31:53.530Z,2.80
2019-03-06T12:32:53.519Z,3.70
2019-03-06T12:33:53.523Z,2.50
2019-03-06T12:34:53.499Z,3.80
2019-03-06T12:35:53.489Z,2.90
2019-03-06T12:36:53.476Z,4.00
2019-03-06T12:37:53.475Z,3.70
2019-03-06T12:38:53.466Z,4.00
2019-03-06T12:39:53.445Z,4.50
2019-03-06T12:40:53.433Z,2.40
2019-03-06T12:41:53.422Z,3.80
2019-03-06T12:42:53.411Z,4.30
2019-03-06T12:43:53.462Z,4.60
2019-03-06T12:44:53.386Z,3.90
2019-03-06T12:45:53.376Z,5.40
2019-03-06T12:46:53.380Z,2.50
2019-03-06T12:47:55.618Z,3.00
2019-03-06T12:48:53.354Z,3.50
2019-03-06T12:49:53.329Z,3.30
2019-03-06T12:50:56.201Z,2.90
2019-03-06T12:51:54.730Z,2.50
2019-03-06T12:52:53.320Z,2.70
2019-03-06T12:53:53.302Z,3.20
2019-03-06T12:54:53.278Z,3.80
2019-03-06T12:55:53.265Z,2.60
2019-03-06T12:56:53.259Z,2.90
2019-03-06T12:57:59.386Z,2.50
2019-03-06T12:58:54.243Z,3.80
2019-03-06T12:59:53.223Z,4.30
2019-03-06T13:00:53.216Z,2.90
2019-03-06T13:01:53.204Z,3.30
2019-03-06T13:02:53.198Z,3.10
2019-03-06T13:03:53.196Z,2.10
2019-03-06T13:04:53.536Z,4.30
2019-03-06T13:05:53.159Z,2.00
2019-03-06T13:06:53.148Z,2.60
2019-03-06T13:07:53.140Z,2.90
2019-03-06T13:08:53.142Z,2.30
2019-03-06T13:09:53.118Z,2.30
2019-03-06T13:10:53.104Z,2.20
2019-03-06T13:11:53.095Z,3.00
2019-03-06T13:12:53.085Z,2.80
2019-03-06T13:13:53.081Z,1.60
2019-03-06T13:14:53.060Z,3.00
2019-03-06T13:15:53.050Z,1.80
2019-03-06T13:16:53.040Z,2.10